createdAt,value
2019-01-21T00:01:33.089Z,7.43
2019-01-21T00:04:03.546Z,6.13
2019-01-21T00:06:33.968Z,7.37
2019-01-21T00:09:06.029Z,6.10
2019-01-21T00:11:36.476Z,7.47
2019-01-21T00:14:06.977Z,7.37
2019-01-21T00:16:37.393Z,6.97
2019-01-21T00:19:07.820Z,7.40
2019-01-21T00:21:39.756Z,7.93
2019-01-21T00:24:10.230Z,7.90
2019-01-21T00:26:40.636Z,6.77
2019-01-21T00:29:11.064Z,6.87
2019-01-21T00:31:41.492Z,7.27
2019-01-21T00:34:11.921Z,7.30
2019-01-21T00:36:42.313Z,7.53
2019-01-21T00:39:12.819Z,7.67
2019-01-21T00:41:43.238Z,7.70
2019-01-21T00:44:13.655Z,6.50
2019-01-21T00:46:44.108Z,7.93
2019-01-21T00:49:14.511Z,6.27
2019-01-21T00:51:44.936Z,7.77
2019-01-21T00:54:15.340Z,6.80
2019-01-21T00:56:45.750Z,6.57
2019-01-21T00:59:16.155Z,7.47
2019-01-21T01:01:46.625Z,7.00
2019-01-21T01:04:17.085Z,6.37
2019-01-21T01:06:47.530Z,8.50
2019-01-21T01:09:18.057Z,7.77
2019-01-21T01:11:48.487Z,8.60
2019-01-21T01:14:18.920Z,7.43
2019-01-21T01:16:49.324Z,8.50
2019-01-21T01:19:19.747Z,6.83
2019-01-21T01:21:50.172Z,7.10
2019-01-21T01:24:20.595Z,6.77
2019-01-21T01:26:51.025Z,7.07
2019-01-21T01:29:21.464Z,7.00
2019-01-21T01:31:51.906Z,5.23
2019-01-21T01:34:22.351Z,7.77
2019-01-21T01:36:52.804Z,8.40
2019-01-21T01:39:23.275Z,7.03
2019-01-21T01:41:53.704Z,7.90
2019-01-21T01:44:24.136Z,8.10
2019-01-21T01:46:54.539Z,8.27
2019-01-21T01:49:24.978Z,7.93
2019-01-21T01:51:55.420Z,6.27
2019-01-21T01:54:25.853Z,6.90
2019-01-21T01:56:56.554Z,7.83
2019-01-21T01:59:27.014Z,7.40
2019-01-21T02:01:57.418Z,8.00
2019-01-21T02:04:27.841Z,8.63
2019-01-21T02:06:58.271Z,7.53
2019-01-21T02:09:28.713Z,7.10
2019-01-21T02:11:59.149Z,8.43
2019-01-21T02:14:29.553Z,7.53
2019-01-21T02:16:59.964Z,9.13
2019-01-21T02:19:31.690Z,7.90
2019-01-21T02:22:03.349Z,8.30
2019-01-21T02:24:42.138Z,7.00
2019-01-21T02:27:26.353Z,6.70
2019-01-21T02:30:50.975Z,6.90
2019-01-21T02:33:58.497Z,6.40
2019-01-21T02:37:42.246Z,6.73
2019-01-21T02:41:16.925Z,6.83
2019-01-21T02:44:49.420Z,7.40
2019-01-21T02:47:59.841Z,5.77
2019-01-21T02:51:11.078Z,7.13
2019-01-21T02:54:12.509Z,7.40
2019-01-21T02:57:27.427Z,8.57
2019-01-21T03:00:37.869Z,6.20
2019-01-21T03:03:34.185Z,6.90
2019-01-21T03:07:23.941Z,7.50
2019-01-21T03:10:27.220Z,6.10
2019-01-21T03:13:25.154Z,8.70
2019-01-21T03:16:55.317Z,7.67
2019-01-21T03:20:18.749Z,6.63
2019-01-21T03:23:48.568Z,8.80
2019-01-21T03:27:00.085Z,7.57
2019-01-21T03:30:27.002Z,8.17
2019-01-21T03:33:53.328Z,7.27
2019-01-21T03:37:03.615Z,8.27
2019-01-21T03:40:32.946Z,7.13
2019-01-21T03:44:05.905Z,6.60
2019-01-21T03:47:38.950Z,5.77
2019-01-21T03:51:17.151Z,7.90
2019-01-21T03:54:30.420Z,7.47
2019-01-21T03:57:25.742Z,5.83
2019-01-21T04:00:30.081Z,7.47
2019-01-21T04:03:54.327Z,7.60
2019-01-21T04:07:00.798Z,8.80
2019-01-21T04:10:43.720Z,7.93
2019-01-21T04:14:06.097Z,6.13
2019-01-21T04:17:14.906Z,5.97
2019-01-21T04:20:13.994Z,6.30
2019-01-21T04:23:25.687Z,6.97
2019-01-21T04:26:45.708Z,7.17
2019-01-21T04:30:15.260Z,8.17
2019-01-21T04:33:54.784Z,7.17
2019-01-21T04:37:32.065Z,7.33
2019-01-21T04:40:49.432Z,7.00
2019-01-21T04:43:50.061Z,6.20
2019-01-21T04:47:24.685Z,7.90
2019-01-21T04:51:17.520Z,8.80
2019-01-21T04:54:33.190Z,7.00
2019-01-21T04:57:41.888Z,7.00
2019-01-21T05:01:05.695Z,8.27
2019-01-21T05:04:30.360Z,7.60
2019-01-21T05:08:04.496Z,6.93
2019-01-21T05:12:02.512Z,6.37
2019-01-21T05:15:27.854Z,6.63
2019-01-21T05:18:43.786Z,5.60
2019-01-21T05:22:17.334Z,7.93
2019-01-21T05:25:55.650Z,8.17
2019-01-21T05:29:13.992Z,8.50
2019-01-21T05:32:45.384Z,7.57
2019-01-21T05:35:53.054Z,7.30
2019-01-21T05:38:58.750Z,6.40
2019-01-21T05:42:38.416Z,7.03
2019-01-21T05:46:03.984Z,7.20
2019-01-21T05:49:31.479Z,6.37
2019-01-21T05:53:02.386Z,8.20
2019-01-21T05:56:31.260Z,7.73
2019-01-21T06:00:15.828Z,5.63
2019-01-21T06:03:58.652Z,7.10
2019-01-21T06:07:49.913Z,7.50
2019-01-21T06:10:35.812Z,7.40
2019-01-21T06:14:17.738Z,6.50
2019-01-21T06:17:06.370Z,7.47
2019-01-21T06:20:43.037Z,6.50
2019-01-21T06:23:41.904Z,6.30
2019-01-21T06:27:21.419Z,6.10
2019-01-21T06:30:49.210Z,5.97
2019-01-21T06:33:58.472Z,5.73
2019-01-21T06:37:08.905Z,6.40
2019-01-21T06:40:56.929Z,6.37
2019-01-21T06:44:10.875Z,6.50
2019-01-21T06:47:42.624Z,6.20
2019-01-21T06:51:27.221Z,5.40
2019-01-21T06:54:41.180Z,7.60
2019-01-21T06:58:03.386Z,7.90
2019-01-21T07:01:18.141Z,6.73
2019-01-21T07:04:21.601Z,6.10
2019-01-21T07:07:48.862Z,7.23
2019-01-21T07:11:07.204Z,5.13
2019-01-21T07:14:13.813Z,5.97
2019-01-21T07:17:13.349Z,6.17
2019-01-21T07:20:17.230Z,7.90
2019-01-21T07:23:50.690Z,6.53
2019-01-21T07:27:34.436Z,6.10
2019-01-21T07:30:38.640Z,6.30
2019-01-21T07:33:55.941Z,7.53
2019-01-21T07:37:16.575Z,6.43
2019-01-21T07:40:34.300Z,7.10
2019-01-21T07:43:46.410Z,6.07
2019-01-21T07:47:15.689Z,7.33
2019-01-21T07:50:22.127Z,6.50
2019-01-21T07:53:52.855Z,5.87
2019-01-21T07:57:08.665Z,6.47
2019-01-21T08:00:48.509Z,4.83
2019-01-21T08:04:01.213Z,6.77
2019-01-21T08:07:17.380Z,6.90
2019-01-21T08:10:44.197Z,7.10
2019-01-21T08:14:12.600Z,7.80
2019-01-21T08:17:25.980Z,6.90
2019-01-21T08:20:48.751Z,7.80
2019-01-21T08:24:14.454Z,6.90
2019-01-21T08:27:46.872Z,8.10
2019-01-21T08:31:26.194Z,7.73
2019-01-21T08:35:13.353Z,9.20
2019-01-21T08:38:20.452Z,8.80
2019-01-21T08:41:36.153Z,9.87
2019-01-21T08:45:03.318Z,9.00
2019-01-21T08:48:33.643Z,8.87
2019-01-21T08:52:01.465Z,9.80
2019-01-21T08:55:18.855Z,10.10
2019-01-21T08:58:25.245Z,9.77
2019-01-21T09:01:38.349Z,9.20
2019-01-21T09:05:26.448Z,10.37
2019-01-21T09:08:54.724Z,10.33
2019-01-21T09:12:19.570Z,11.50
2019-01-21T09:15:30.105Z,9.67
2019-01-21T09:18:44.899Z,10.10
2019-01-21T09:21:59.187Z,9.57
2019-01-21T09:25:03.961Z,10.93
2019-01-21T09:28:34.260Z,13.13
2019-01-21T09:31:59.792Z,12.27
2019-01-21T09:35:29.560Z,13.87
2019-01-21T09:39:09.142Z,11.73
2019-01-21T09:42:42.254Z,13.97
2019-01-21T09:45:59.510Z,12.70
2019-01-21T09:48:27.561Z,14.20
2019-01-21T09:51:04.922Z,12.00
2019-01-21T09:53:36.443Z,13.33
2019-01-21T09:56:07.738Z,12.97
2019-01-21T09:58:38.983Z,12.40
2019-01-21T10:01:10.949Z,12.90
2019-01-21T10:03:41.608Z,12.63
2019-01-21T10:06:12.097Z,13.00
2019-01-21T10:09:31.205Z,13.13
2019-01-21T10:12:40.737Z,12.90
2019-01-21T10:15:48.395Z,13.00
2019-01-21T10:18:53.173Z,13.53
2019-01-21T10:22:44.688Z,14.60
2019-01-21T10:26:27.329Z,14.63
2019-01-21T10:29:20.083Z,13.07
2019-01-21T10:32:47.989Z,14.10
2019-01-21T10:36:03.658Z,13.03
2019-01-21T10:39:29.322Z,13.13
2019-01-21T10:43:08.261Z,14.10
2019-01-21T10:46:09.627Z,13.93
2019-01-21T10:49:31.566Z,12.53
2019-01-21T10:53:13.623Z,12.53
2019-01-21T10:56:25.027Z,12.53
2019-01-21T10:59:45.727Z,11.80
2019-01-21T11:03:09.163Z,10.90
2019-01-21T11:06:27.725Z,12.40
2019-01-21T11:09:53.749Z,11.73
2019-01-21T11:13:08.217Z,11.47
2019-01-21T11:16:12.453Z,11.00
2019-01-21T11:19:22.162Z,11.50
2019-01-21T11:22:34.883Z,12.30
2019-01-21T11:26:22.210Z,13.37
2019-01-21T11:29:10.808Z,11.33
2019-01-21T11:32:52.972Z,11.60
2019-01-21T11:36:42.641Z,12.37
2019-01-21T11:40:39.978Z,11.03
2019-01-21T11:44:05.216Z,11.57
2019-01-21T11:47:29.238Z,12.63
2019-01-21T11:51:03.170Z,13.53
2019-01-21T11:53:49.646Z,12.23
2019-01-21T11:57:12.763Z,12.20
2019-01-21T12:00:36.068Z,13.17
2019-01-21T12:03:31.170Z,11.67
2019-01-21T12:06:37.264Z,11.33
2019-01-21T12:09:35.987Z,12.60
2019-01-21T12:12:39.304Z,11.73
2019-01-21T12:15:52.766Z,13.80
2019-01-21T12:19:09.070Z,14.80
2019-01-21T12:22:56.130Z,12.60
2019-01-21T12:25:46.464Z,12.93
2019-01-21T12:29:22.879Z,14.97
2019-01-21T12:32:48.215Z,13.63
2019-01-21T12:35:54.742Z,14.30
2019-01-21T12:39:13.818Z,12.40
2019-01-21T12:42:41.987Z,12.67
2019-01-21T12:46:10.891Z,14.03
2019-01-21T12:49:20.789Z,20.00
2019-01-21T12:52:05.722Z,12.53
2019-01-21T12:55:32.563Z,12.93
2019-01-21T12:59:15.988Z,13.90
2019-01-21T13:02:23.485Z,15.17
2019-01-21T13:05:43.563Z,13.47
2019-01-21T13:08:51.674Z,17.17
2019-01-21T13:12:18.445Z,13.73
2019-01-21T13:15:35.849Z,13.30
2019-01-21T13:18:37.094Z,13.87
2019-01-21T13:21:59.121Z,12.77
2019-01-21T13:25:00.401Z,12.60
2019-01-21T13:28:29.501Z,12.40
2019-01-21T13:31:40.160Z,11.53
2019-01-21T13:35:40.278Z,12.93
2019-01-21T13:38:36.238Z,13.10
2019-01-21T13:42:12.010Z,13.27
2019-01-21T13:45:16.743Z,14.17
2019-01-21T13:48:13.291Z,13.37
2019-01-21T13:51:34.487Z,11.70
2019-01-21T13:55:06.469Z,12.27
2019-01-21T13:58:42.551Z,12.37
2019-01-21T14:01:59.562Z,11.37
2019-01-21T14:05:01.798Z,11.87
2019-01-21T14:08:40.407Z,12.70
2019-01-21T14:12:30.661Z,12.43
2019-01-21T14:15:58.771Z,12.73
2019-01-21T14:19:05.490Z,11.20
2019-01-21T14:22:23.317Z,11.50
2019-01-21T14:25:30.144Z,12.93
2019-01-21T14:28:58.103Z,12.10
2019-01-21T14:32:41.886Z,12.80
2019-01-21T14:36:17.128Z,11.30
2019-01-21T14:39:39.589Z,18.33
2019-01-21T14:42:55.591Z,15.27
2019-01-21T14:46:05.788Z,15.57
2019-01-21T14:49:08.769Z,12.93
2019-01-21T14:52:31.237Z,13.50
2019-01-21T14:56:08.083Z,12.67
2019-01-21T14:59:04.059Z,12.30
2019-01-21T15:02:29.818Z,12.27
2019-01-21T15:06:00.981Z,10.60
2019-01-21T15:09:04.392Z,11.10
2019-01-21T15:12:30.487Z,11.80
2019-01-21T15:15:52.838Z,11.33
2019-01-21T15:19:19.197Z,11.20
2019-01-21T15:23:07.248Z,12.83
2019-01-21T15:26:58.935Z,10.97
2019-01-21T15:30:29.083Z,10.20
2019-01-21T15:33:48.965Z,11.57
2019-01-21T15:36:58.330Z,11.17
2019-01-21T15:40:13.772Z,11.10
2019-01-21T15:43:18.519Z,11.70
2019-01-21T15:46:43.557Z,10.70
2019-01-21T15:49:47.843Z,12.87
2019-01-21T15:53:07.581Z,11.93
2019-01-21T15:56:22.314Z,12.87
2019-01-21T15:59:21.867Z,12.10
2019-01-21T16:02:35.538Z,10.87
2019-01-21T16:06:21.605Z,10.47
2019-01-21T16:09:21.371Z,10.93
2019-01-21T16:12:59.396Z,10.10
2019-01-21T16:16:29.381Z,9.53
2019-01-21T16:19:17.285Z,11.13
2019-01-21T16:22:32.800Z,10.90
2019-01-21T16:25:41.552Z,10.67
2019-01-21T16:28:51.387Z,9.40
2019-01-21T16:31:49.849Z,10.03
2019-01-21T16:35:10.872Z,9.43
2019-01-21T16:38:10.909Z,10.70
2019-01-21T16:42:04.982Z,10.87
2019-01-21T16:44:35.412Z,9.43
2019-01-21T16:47:06.321Z,9.67
2019-01-21T16:49:36.774Z,10.77
2019-01-21T16:52:09.570Z,10.63
2019-01-21T16:54:43.937Z,10.17
2019-01-21T16:57:14.394Z,11.37
2019-01-21T16:59:44.945Z,10.20
2019-01-21T17:02:15.449Z,10.30
2019-01-21T17:04:45.863Z,12.03
2019-01-21T17:07:17.437Z,10.73
2019-01-21T17:09:50.015Z,12.50
2019-01-21T17:12:20.439Z,11.70
2019-01-21T17:14:57.452Z,10.50
2019-01-21T17:17:23.184Z,11.17
2019-01-21T17:19:56.747Z,10.00
2019-01-21T17:22:27.256Z,11.00
2019-01-21T17:24:57.729Z,10.90
2019-01-21T17:27:28.144Z,11.20
2019-01-21T17:29:58.585Z,9.90
2019-01-21T17:32:28.990Z,10.43
2019-01-21T17:34:59.448Z,10.77
2019-01-21T17:37:30.254Z,9.60
2019-01-21T17:40:00.748Z,9.20
2019-01-21T17:42:31.187Z,9.60
2019-01-21T17:45:01.535Z,10.23
2019-01-21T17:47:32.028Z,10.80
2019-01-21T17:50:02.508Z,10.43
2019-01-21T17:52:32.969Z,11.43
2019-01-21T17:55:03.428Z,9.90
2019-01-21T17:57:33.858Z,9.90
2019-01-21T18:00:07.544Z,12.20
2019-01-21T18:02:41.135Z,9.83
2019-01-21T18:05:11.722Z,11.43
2019-01-21T18:07:45.444Z,12.27
2019-01-21T18:10:17.684Z,10.30
2019-01-21T18:12:48.129Z,9.33
2019-01-21T18:15:18.591Z,9.90
2019-01-21T18:17:49.034Z,10.77
2019-01-21T18:20:23.200Z,11.10
2019-01-21T18:22:53.625Z,10.77
2019-01-21T18:25:24.080Z,12.47
2019-01-21T18:27:54.603Z,14.50
2019-01-21T18:30:27.746Z,12.03
2019-01-21T18:32:58.177Z,10.13
2019-01-21T18:35:28.764Z,11.80
2019-01-21T18:37:59.202Z,9.50
2019-01-21T18:40:29.701Z,10.13
2019-01-21T18:43:00.264Z,9.43
2019-01-21T18:45:30.956Z,10.17
2019-01-21T18:48:01.421Z,9.50
2019-01-21T18:50:31.862Z,10.13
2019-01-21T18:53:02.319Z,9.07
2019-01-21T18:55:35.648Z,9.70
2019-01-21T18:58:06.238Z,8.00
2019-01-21T19:00:36.724Z,8.57
2019-01-21T19:03:07.248Z,8.80
2019-01-21T19:05:37.671Z,8.60
2019-01-21T19:08:08.201Z,8.70
2019-01-21T19:10:38.692Z,7.60
2019-01-21T19:13:09.131Z,8.40
2019-01-21T19:15:39.653Z,7.93
2019-01-21T19:18:10.129Z,7.53
2019-01-21T19:20:40.622Z,10.00
2019-01-21T19:23:11.249Z,8.00
2019-01-21T19:25:41.734Z,11.47
2019-01-21T19:28:12.171Z,8.33
2019-01-21T19:30:42.590Z,10.47
2019-01-21T19:33:13.186Z,10.27
2019-01-21T19:35:43.698Z,9.40
2019-01-21T19:38:14.235Z,9.40
2019-01-21T19:40:44.774Z,9.17
2019-01-21T19:43:15.408Z,8.40
2019-01-21T19:45:45.875Z,9.73
2019-01-21T19:48:16.376Z,11.43
2019-01-21T19:50:46.848Z,10.60
2019-01-21T19:53:17.312Z,11.50
2019-01-21T19:55:47.815Z,10.97
2019-01-21T19:58:18.390Z,9.90
2019-01-21T20:00:48.862Z,8.50
2019-01-21T20:03:19.323Z,9.70
2019-01-21T20:05:49.820Z,9.93
2019-01-21T20:08:20.379Z,11.20
2019-01-21T20:10:50.906Z,9.27
2019-01-21T20:13:21.478Z,10.30
2019-01-21T20:15:52.021Z,9.17
2019-01-21T20:18:22.516Z,11.10
2019-01-21T20:20:53.043Z,9.37
2019-01-21T20:23:23.545Z,10.03
2019-01-21T20:25:54.349Z,9.80
2019-01-21T20:28:24.849Z,10.27
2019-01-21T20:30:55.385Z,10.40
2019-01-21T20:33:25.880Z,11.10
2019-01-21T20:35:56.346Z,9.43
2019-01-21T20:38:26.846Z,8.87
2019-01-21T20:40:57.408Z,9.30
2019-01-21T20:43:27.894Z,8.60
2019-01-21T20:45:58.474Z,9.80
2019-01-21T20:48:29.138Z,10.83
2019-01-21T20:50:59.580Z,9.37
2019-01-21T20:53:30.127Z,8.57
2019-01-21T20:56:00.647Z,9.50
2019-01-21T20:58:31.116Z,11.80
2019-01-21T21:01:01.604Z,11.50
2019-01-21T21:03:32.000Z,10.33
2019-01-21T21:06:02.435Z,9.80
2019-01-21T21:08:32.867Z,10.83
2019-01-21T21:11:03.360Z,9.37
2019-01-21T21:13:33.717Z,9.57
2019-01-21T21:16:04.127Z,11.20
2019-01-21T21:18:34.510Z,9.90
2019-01-21T21:21:04.941Z,9.00
2019-01-21T21:23:35.309Z,10.17
2019-01-21T21:26:05.775Z,8.83
2019-01-21T21:28:36.359Z,7.80
2019-01-21T21:31:06.790Z,10.13
2019-01-21T21:33:37.156Z,9.87
2019-01-21T21:36:07.567Z,9.87
2019-01-21T21:38:37.881Z,9.87
2019-01-21T21:41:08.314Z,8.93
2019-01-21T21:43:38.764Z,9.40
2019-01-21T21:46:09.455Z,8.90
2019-01-21T21:48:39.825Z,7.00
2019-01-21T21:51:10.161Z,8.60
2019-01-21T21:53:41.424Z,10.60
2019-01-21T21:56:11.749Z,9.80
2019-01-21T21:58:42.077Z,8.90
2019-01-21T22:01:12.426Z,10.97
2019-01-21T22:03:42.710Z,9.97
2019-01-21T22:06:13.078Z,9.20
2019-01-21T22:08:43.335Z,8.13
2019-01-21T22:11:13.688Z,9.17
2019-01-21T22:13:44.043Z,9.97
2019-01-21T22:16:14.661Z,9.10
2019-01-21T22:18:45.001Z,9.13
2019-01-21T22:21:15.375Z,9.97
2019-01-21T22:23:45.731Z,8.70
2019-01-21T22:26:16.097Z,9.30
2019-01-21T22:28:46.742Z,8.43
2019-01-21T22:31:17.249Z,10.93
2019-01-21T22:33:47.633Z,9.70
2019-01-21T22:36:18.063Z,9.00
2019-01-21T22:38:48.513Z,9.27
2019-01-21T22:41:18.972Z,10.60
2019-01-21T22:43:49.389Z,11.27
2019-01-21T22:46:19.849Z,11.10
2019-01-21T22:48:50.263Z,10.10
2019-01-21T22:51:21.063Z,9.77
2019-01-21T22:53:51.507Z,8.90
2019-01-21T22:56:21.883Z,7.83
2019-01-21T22:58:52.318Z,9.97
2019-01-21T23:01:32.072Z,8.80
2019-01-21T23:04:02.516Z,9.83
2019-01-21T23:06:32.942Z,9.50
2019-01-21T23:09:04.811Z,9.77
2019-01-21T23:11:35.215Z,8.80
2019-01-21T23:14:06.419Z,8.73
2019-01-21T23:16:36.838Z,9.93
2019-01-21T23:19:07.290Z,8.83
2019-01-21T23:21:38.605Z,12.23
2019-01-21T23:24:08.993Z,10.67
2019-01-21T23:26:39.421Z,10.47
2019-01-21T23:29:09.878Z,9.23
2019-01-21T23:31:40.296Z,9.37
2019-01-21T23:34:10.722Z,9.13
2019-01-21T23:36:41.214Z,10.20
2019-01-21T23:39:11.678Z,9.93
2019-01-21T23:41:42.122Z,8.60
2019-01-21T23:44:12.546Z,8.90
2019-01-21T23:46:42.944Z,8.93
2019-01-21T23:49:13.427Z,9.27
2019-01-21T23:51:43.848Z,10.07
2019-01-21T23:54:15.274Z,8.97
2019-01-21T23:56:45.791Z,9.20
2019-01-21T23:59:16.210Z,9.70
